Other Surface Observations
Issued by NWS Missoula, MT

Home | Current Version | Previous Version | Text Only | Print | Product List | Glossary On
Versions: 1 2 3 4 5 6 7 8 9 10 11 12 13 14 15 16 17 18 19 20 21 22 23 24 25 26 27 28 29 30 31 32 33 34 35 36 37 38 39 40 41 42 43 44 45 46 47 48 49 50
000
SXUS55 KMSO 212304
OSOMSO
MONTANA AWOS SUMMARY
NATIONAL WEATHER SERVICE MISSOULA MT
503 PM MDT SUN SEP 21 2014

Montana AWOS Reports

PLAINS      |KS34 212255Z AUTO 00000KT 40SM 31/07 A2995 RMK AO1 T03110067
LAUREL      |K6S8 212255Z AUTO 06008KT 40SM 26/06 A3011 RMK AO1 T02560056
ROUNDUP     |KRPX 212255Z AUTO 10007KT 40SM 24/04 A3006 RMK AO1 T02440044
SCOBEY      |K9S2 212255Z AUTO 21005KT 5SM 23/03 A3016 RMK AO1 T02330033
MALTA       |KM75 212255Z AUTO 12006KT 40SM 24/08 A3009 RMK AO1 T02390078




USA.gov is the U.S. government's official web portal to all federal, state and local government web resources and services.